sensor_id;sensor_type;location;lat;lon;timestamp;P1;durP1;ratioP1;P2;durP2;ratioP2
59273;SDS011;45044;41.572;24.730;2023-08-31T00:00:44;8.10;;;4.85;;
59273;SDS011;45044;41.572;24.730;2023-08-31T00:03:12;8.25;;;4.95;;
59273;SDS011;45044;41.572;24.730;2023-08-31T00:05:41;8.27;;;4.60;;
59273;SDS011;45044;41.572;24.730;2023-08-31T00:08:09;7.85;;;4.80;;
59273;SDS011;45044;41.572;24.730;2023-08-31T00:10:37;8.00;;;4.57;;
59273;SDS011;45044;41.572;24.730;2023-08-31T00:13:04;8.32;;;4.97;;
59273;SDS011;45044;41.572;24.730;2023-08-31T00:15:35;8.80;;;4.70;;
59273;SDS011;45044;41.572;24.730;2023-08-31T00:18:03;8.25;;;4.63;;
59273;SDS011;45044;41.572;24.730;2023-08-31T00:20:31;8.57;;;4.97;;
59273;SDS011;45044;41.572;24.730;2023-08-31T00:23:00;7.70;;;4.43;;
59273;SDS011;45044;41.572;24.730;2023-08-31T00:25:27;8.10;;;5.18;;
59273;SDS011;45044;41.572;24.730;2023-08-31T00:27:55;8.68;;;5.18;;
59273;SDS011;45044;41.572;24.730;2023-08-31T00:30:23;7.82;;;4.75;;
59273;SDS011;45044;41.572;24.730;2023-08-31T00:32:56;7.93;;;4.75;;
59273;SDS011;45044;41.572;24.730;2023-08-31T00:35:26;8.77;;;5.35;;
59273;SDS011;45044;41.572;24.730;2023-08-31T00:37:54;7.63;;;4.63;;
59273;SDS011;45044;41.572;24.730;2023-08-31T00:40:25;7.85;;;4.70;;
59273;SDS011;45044;41.572;24.730;2023-08-31T00:42:52;12.13;;;4.95;;
59273;SDS011;45044;41.572;24.730;2023-08-31T00:45:19;8.80;;;4.57;;
59273;SDS011;45044;41.572;24.730;2023-08-31T00:47:47;9.50;;;5.43;;
59273;SDS011;45044;41.572;24.730;2023-08-31T00:50:16;8.57;;;4.90;;
59273;SDS011;45044;41.572;24.730;2023-08-31T00:52:43;7.50;;;4.53;;
59273;SDS011;45044;41.572;24.730;2023-08-31T00:55:10;7.90;;;4.60;;
59273;SDS011;45044;41.572;24.730;2023-08-31T00:57:37;7.78;;;4.45;;
59273;SDS011;45044;41.572;24.730;2023-08-31T01:00:05;7.90;;;4.65;;
59273;SDS011;45044;41.572;24.730;2023-08-31T01:02:38;7.65;;;4.78;;
59273;SDS011;45044;41.572;24.730;2023-08-31T01:05:20;9.95;;;6.25;;
59273;SDS011;45044;41.572;24.730;2023-08-31T01:13:26;8.00;;;4.22;;
59273;SDS011;45044;41.572;24.730;2023-08-31T01:15:59;8.90;;;4.65;;
59273;SDS011;45044;41.572;24.730;2023-08-31T01:18:29;7.55;;;4.40;;
59273;SDS011;45044;41.572;24.730;2023-08-31T01:21:08;8.52;;;4.88;;
59273;SDS011;45044;41.572;24.730;2023-08-31T01:26:22;8.45;;;4.47;;
59273;SDS011;45044;41.572;24.730;2023-08-31T01:28:50;9.73;;;5.00;;
59273;SDS011;45044;41.572;24.730;2023-08-31T01:31:18;8.75;;;4.47;;
59273;SDS011;45044;41.572;24.730;2023-08-31T01:33:45;8.05;;;4.43;;
59273;SDS011;45044;41.572;24.730;2023-08-31T01:36:29;8.48;;;4.82;;
59273;SDS011;45044;41.572;24.730;2023-08-31T01:39:04;8.85;;;4.47;;
59273;SDS011;45044;41.572;24.730;2023-08-31T01:41:43;8.25;;;4.30;;
59273;SDS011;45044;41.572;24.730;2023-08-31T01:44:12;8.35;;;4.47;;
59273;SDS011;45044;41.572;24.730;2023-08-31T01:46:45;8.35;;;4.28;;
59273;SDS011;45044;41.572;24.730;2023-08-31T01:49:12;8.23;;;4.70;;
59273;SDS011;45044;41.572;24.730;2023-08-31T01:51:40;7.50;;;4.28;;
59273;SDS011;45044;41.572;24.730;2023-08-31T01:54:07;8.38;;;4.53;;
59273;SDS011;45044;41.572;24.730;2023-08-31T01:56:34;8.68;;;4.47;;
59273;SDS011;45044;41.572;24.730;2023-08-31T01:59:01;8.88;;;4.95;;
59273;SDS011;45044;41.572;24.730;2023-08-31T02:01:27;7.47;;;4.15;;
59273;SDS011;45044;41.572;24.730;2023-08-31T02:03:55;7.28;;;4.25;;
59273;SDS011;45044;41.572;24.730;2023-08-31T02:06:22;7.88;;;4.60;;
59273;SDS011;45044;41.572;24.730;2023-08-31T02:08:49;7.93;;;4.50;;
59273;SDS011;45044;41.572;24.730;2023-08-31T02:11:16;8.60;;;4.75;;
59273;SDS011;45044;41.572;24.730;2023-08-31T02:13:43;8.50;;;4.70;;
59273;SDS011;45044;41.572;24.730;2023-08-31T02:16:09;7.50;;;4.15;;
59273;SDS011;45044;41.572;24.730;2023-08-31T02:18:36;8.82;;;4.45;;
59273;SDS011;45044;41.572;24.730;2023-08-31T02:21:03;8.07;;;4.65;;
59273;SDS011;45044;41.572;24.730;2023-08-31T02:23:31;10.25;;;4.55;;
59273;SDS011;45044;41.572;24.730;2023-08-31T02:25:58;10.30;;;4.68;;
59273;SDS011;45044;41.572;24.730;2023-08-31T02:28:24;8.35;;;4.32;;
59273;SDS011;45044;41.572;24.730;2023-08-31T02:30:58;8.75;;;4.60;;
59273;SDS011;45044;41.572;24.730;2023-08-31T02:33:26;7.32;;;4.40;;
59273;SDS011;45044;41.572;24.730;2023-08-31T02:35:54;8.65;;;4.40;;
59273;SDS011;45044;41.572;24.730;2023-08-31T02:38:21;8.07;;;4.25;;
59273;SDS011;45044;41.572;24.730;2023-08-31T02:40:49;7.07;;;4.40;;
59273;SDS011;45044;41.572;24.730;2023-08-31T02:43:16;8.05;;;3.95;;
59273;SDS011;45044;41.572;24.730;2023-08-31T02:45:42;6.63;;;4.15;;
59273;SDS011;45044;41.572;24.730;2023-08-31T02:48:09;8.45;;;4.10;;
59273;SDS011;45044;41.572;24.730;2023-08-31T02:50:37;8.00;;;4.28;;
59273;SDS011;45044;41.572;24.730;2023-08-31T02:53:04;7.78;;;4.57;;
59273;SDS011;45044;41.572;24.730;2023-08-31T02:55:32;8.68;;;4.55;;
59273;SDS011;45044;41.572;24.730;2023-08-31T02:57:59;7.72;;;3.83;;
59273;SDS011;45044;41.572;24.730;2023-08-31T03:00:26;10.23;;;4.38;;
59273;SDS011;45044;41.572;24.730;2023-08-31T03:02:54;7.72;;;4.68;;
59273;SDS011;45044;41.572;24.730;2023-08-31T03:05:21;9.25;;;4.63;;
59273;SDS011;45044;41.572;24.730;2023-08-31T03:07:48;7.68;;;4.13;;
59273;SDS011;45044;41.572;24.730;2023-08-31T03:10:15;8.95;;;4.47;;
59273;SDS011;45044;41.572;24.730;2023-08-31T03:12:41;6.57;;;3.83;;
59273;SDS011;45044;41.572;24.730;2023-08-31T03:15:08;9.00;;;4.60;;
59273;SDS011;45044;41.572;24.730;2023-08-31T03:17:35;7.72;;;4.07;;
59273;SDS011;45044;41.572;24.730;2023-08-31T03:20:02;8.73;;;4.28;;
59273;SDS011;45044;41.572;24.730;2023-08-31T03:22:30;9.57;;;4.45;;
59273;SDS011;45044;41.572;24.730;2023-08-31T03:24:57;10.10;;;4.55;;
59273;SDS011;45044;41.572;24.730;2023-08-31T03:27:24;8.20;;;4.53;;
59273;SDS011;45044;41.572;24.730;2023-08-31T03:29:51;10.35;;;4.45;;
59273;SDS011;45044;41.572;24.730;2023-08-31T03:32:18;7.85;;;4.75;;
59273;SDS011;45044;41.572;24.730;2023-08-31T03:34:45;8.77;;;4.63;;
59273;SDS011;45044;41.572;24.730;2023-08-31T03:37:12;8.90;;;4.50;;
59273;SDS011;45044;41.572;24.730;2023-08-31T03:39:39;9.32;;;5.22;;
59273;SDS011;45044;41.572;24.730;2023-08-31T03:42:08;9.18;;;4.75;;
59273;SDS011;45044;41.572;24.730;2023-08-31T03:44:35;7.78;;;5.00;;
59273;SDS011;45044;41.572;24.730;2023-08-31T03:47:03;9.77;;;4.40;;
59273;SDS011;45044;41.572;24.730;2023-08-31T03:49:30;8.57;;;4.57;;
59273;SDS011;45044;41.572;24.730;2023-08-31T03:51:58;7.22;;;4.00;;
59273;SDS011;45044;41.572;24.730;2023-08-31T03:54:25;8.32;;;4.22;;
59273;SDS011;45044;41.572;24.730;2023-08-31T03:56:52;8.63;;;4.55;;
59273;SDS011;45044;41.572;24.730;2023-08-31T03:59:18;8.35;;;4.85;;
59273;SDS011;45044;41.572;24.730;2023-08-31T04:01:45;7.68;;;4.10;;
59273;SDS011;45044;41.572;24.730;2023-08-31T04:04:13;8.90;;;4.70;;
59273;SDS011;45044;41.572;24.730;2023-08-31T04:06:39;9.27;;;4.45;;
59273;SDS011;45044;41.572;24.730;2023-08-31T04:09:06;7.50;;;4.55;;
59273;SDS011;45044;41.572;24.730;2023-08-31T04:11:34;8.07;;;4.72;;
59273;SDS011;45044;41.572;24.730;2023-08-31T04:14:00;9.30;;;4.03;;
59273;SDS011;45044;41.572;24.730;2023-08-31T04:16:27;8.75;;;4.68;;
59273;SDS011;45044;41.572;24.730;2023-08-31T04:18:55;8.57;;;4.65;;
59273;SDS011;45044;41.572;24.730;2023-08-31T04:21:22;9.57;;;4.53;;
59273;SDS011;45044;41.572;24.730;2023-08-31T04:23:49;10.73;;;5.38;;
59273;SDS011;45044;41.572;24.730;2023-08-31T04:26:15;9.93;;;5.85;;
59273;SDS011;45044;41.572;24.730;2023-08-31T04:28:43;9.95;;;4.35;;
59273;SDS011;45044;41.572;24.730;2023-08-31T04:31:11;9.82;;;4.95;;
59273;SDS011;45044;41.572;24.730;2023-08-31T04:33:38;10.45;;;4.85;;
59273;SDS011;45044;41.572;24.730;2023-08-31T04:36:05;8.90;;;4.75;;
59273;SDS011;45044;41.572;24.730;2023-08-31T04:38:33;9.27;;;4.55;;
59273;SDS011;45044;41.572;24.730;2023-08-31T04:41:00;10.05;;;4.90;;
59273;SDS011;45044;41.572;24.730;2023-08-31T04:43:28;11.30;;;5.10;;
59273;SDS011;45044;41.572;24.730;2023-08-31T04:45:55;9.80;;;4.80;;
59273;SDS011;45044;41.572;24.730;2023-08-31T04:48:22;9.70;;;5.10;;
59273;SDS011;45044;41.572;24.730;2023-08-31T04:50:49;10.57;;;5.35;;
59273;SDS011;45044;41.572;24.730;2023-08-31T04:53:16;11.77;;;4.97;;
59273;SDS011;45044;41.572;24.730;2023-08-31T04:55:42;10.07;;;4.80;;
59273;SDS011;45044;41.572;24.730;2023-08-31T04:58:09;8.88;;;4.70;;
59273;SDS011;45044;41.572;24.730;2023-08-31T05:00:36;10.50;;;5.20;;
59273;SDS011;45044;41.572;24.730;2023-08-31T05:03:06;9.00;;;4.97;;
59273;SDS011;45044;41.572;24.730;2023-08-31T05:05:33;11.45;;;5.32;;
59273;SDS011;45044;41.572;24.730;2023-08-31T05:08:01;11.38;;;5.07;;
59273;SDS011;45044;41.572;24.730;2023-08-31T05:10:29;10.38;;;6.35;;
59273;SDS011;45044;41.572;24.730;2023-08-31T05:12:56;10.82;;;5.88;;
59273;SDS011;45044;41.572;24.730;2023-08-31T05:15:23;9.10;;;5.93;;
59273;SDS011;45044;41.572;24.730;2023-08-31T05:17:53;13.55;;;7.35;;
59273;SDS011;45044;41.572;24.730;2023-08-31T05:20:20;14.65;;;6.93;;
59273;SDS011;45044;41.572;24.730;2023-08-31T05:22:50;13.25;;;6.68;;
59273;SDS011;45044;41.572;24.730;2023-08-31T05:25:17;12.48;;;6.10;;
59273;SDS011;45044;41.572;24.730;2023-08-31T05:27:44;15.55;;;6.65;;
59273;SDS011;45044;41.572;24.730;2023-08-31T05:30:11;15.00;;;5.53;;
59273;SDS011;45044;41.572;24.730;2023-08-31T05:32:38;15.13;;;6.43;;
59273;SDS011;45044;41.572;24.730;2023-08-31T05:35:05;11.75;;;6.18;;
59273;SDS011;45044;41.572;24.730;2023-08-31T05:37:33;12.02;;;6.03;;
59273;SDS011;45044;41.572;24.730;2023-08-31T05:40:04;16.60;;;5.68;;
59273;SDS011;45044;41.572;24.730;2023-08-31T05:42:37;13.75;;;5.80;;
59273;SDS011;45044;41.572;24.730;2023-08-31T05:45:04;15.40;;;5.85;;
59273;SDS011;45044;41.572;24.730;2023-08-31T05:47:33;13.65;;;6.10;;
59273;SDS011;45044;41.572;24.730;2023-08-31T05:50:01;10.85;;;5.63;;
59273;SDS011;45044;41.572;24.730;2023-08-31T05:52:29;9.63;;;5.20;;
59273;SDS011;45044;41.572;24.730;2023-08-31T05:54:56;14.18;;;5.82;;
59273;SDS011;45044;41.572;24.730;2023-08-31T05:57:22;12.43;;;5.95;;
59273;SDS011;45044;41.572;24.730;2023-08-31T05:59:49;11.23;;;5.43;;
59273;SDS011;45044;41.572;24.730;2023-08-31T06:02:16;11.55;;;4.78;;
59273;SDS011;45044;41.572;24.730;2023-08-31T06:04:43;12.43;;;6.10;;
59273;SDS011;45044;41.572;24.730;2023-08-31T06:07:10;13.00;;;5.53;;
59273;SDS011;45044;41.572;24.730;2023-08-31T06:09:37;10.25;;;5.80;;
59273;SDS011;45044;41.572;24.730;2023-08-31T06:12:04;11.18;;;6.20;;
59273;SDS011;45044;41.572;24.730;2023-08-31T06:14:33;11.88;;;5.35;;
59273;SDS011;45044;41.572;24.730;2023-08-31T06:17:00;11.20;;;5.40;;
59273;SDS011;45044;41.572;24.730;2023-08-31T06:19:27;10.50;;;5.28;;
59273;SDS011;45044;41.572;24.730;2023-08-31T06:21:54;10.95;;;5.03;;
59273;SDS011;45044;41.572;24.730;2023-08-31T06:24:21;9.35;;;4.82;;
59273;SDS011;45044;41.572;24.730;2023-08-31T06:26:47;10.02;;;4.93;;
59273;SDS011;45044;41.572;24.730;2023-08-31T06:29:14;9.30;;;4.50;;
59273;SDS011;45044;41.572;24.730;2023-08-31T06:31:41;8.00;;;5.30;;
59273;SDS011;45044;41.572;24.730;2023-08-31T06:34:08;11.52;;;5.25;;
59273;SDS011;45044;41.572;24.730;2023-08-31T06:36:35;9.20;;;4.20;;
59273;SDS011;45044;41.572;24.730;2023-08-31T06:39:02;11.45;;;5.38;;
59273;SDS011;45044;41.572;24.730;2023-08-31T06:41:31;9.63;;;4.90;;
59273;SDS011;45044;41.572;24.730;2023-08-31T06:43:58;10.10;;;4.72;;
59273;SDS011;45044;41.572;24.730;2023-08-31T06:46:24;8.63;;;5.07;;
59273;SDS011;45044;41.572;24.730;2023-08-31T06:48:51;9.20;;;4.95;;
59273;SDS011;45044;41.572;24.730;2023-08-31T06:51:19;11.20;;;4.65;;
59273;SDS011;45044;41.572;24.730;2023-08-31T06:53:49;8.93;;;5.30;;
59273;SDS011;45044;41.572;24.730;2023-08-31T06:56:16;7.20;;;3.78;;
59273;SDS011;45044;41.572;24.730;2023-08-31T06:58:42;8.32;;;3.90;;
59273;SDS011;45044;41.572;24.730;2023-08-31T07:01:11;7.07;;;3.85;;
59273;SDS011;45044;41.572;24.730;2023-08-31T07:03:39;7.40;;;3.50;;
59273;SDS011;45044;41.572;24.730;2023-08-31T07:06:06;7.95;;;3.75;;
59273;SDS011;45044;41.572;24.730;2023-08-31T07:08:33;7.70;;;3.42;;
59273;SDS011;45044;41.572;24.730;2023-08-31T07:10:59;8.48;;;3.85;;
59273;SDS011;45044;41.572;24.730;2023-08-31T07:13:26;7.78;;;4.20;;
59273;SDS011;45044;41.572;24.730;2023-08-31T07:15:53;11.55;;;4.75;;
59273;SDS011;45044;41.572;24.730;2023-08-31T07:18:20;11.32;;;7.32;;
59273;SDS011;45044;41.572;24.730;2023-08-31T07:20:47;8.07;;;3.92;;
59273;SDS011;45044;41.572;24.730;2023-08-31T07:23:14;7.15;;;3.72;;
59273;SDS011;45044;41.572;24.730;2023-08-31T07:25:41;8.52;;;4.15;;
59273;SDS011;45044;41.572;24.730;2023-08-31T07:28:09;10.10;;;4.43;;
59273;SDS011;45044;41.572;24.730;2023-08-31T07:30:36;8.48;;;4.18;;
59273;SDS011;45044;41.572;24.730;2023-08-31T07:33:03;9.13;;;4.43;;
59273;SDS011;45044;41.572;24.730;2023-08-31T07:35:50;6.50;;;3.70;;
59273;SDS011;45044;41.572;24.730;2023-08-31T07:38:24;6.85;;;3.75;;
59273;SDS011;45044;41.572;24.730;2023-08-31T07:40:51;9.45;;;4.45;;
59273;SDS011;45044;41.572;24.730;2023-08-31T07:43:19;10.23;;;5.20;;
59273;SDS011;45044;41.572;24.730;2023-08-31T07:45:46;8.32;;;4.80;;
59273;SDS011;45044;41.572;24.730;2023-08-31T07:48:12;8.15;;;5.00;;
59273;SDS011;45044;41.572;24.730;2023-08-31T07:50:42;9.13;;;4.95;;
59273;SDS011;45044;41.572;24.730;2023-08-31T07:53:10;7.55;;;4.00;;
59273;SDS011;45044;41.572;24.730;2023-08-31T07:55:39;8.70;;;4.60;;
59273;SDS011;45044;41.572;24.730;2023-08-31T07:58:06;8.07;;;3.60;;
59273;SDS011;45044;41.572;24.730;2023-08-31T08:00:33;10.00;;;4.07;;
59273;SDS011;45044;41.572;24.730;2023-08-31T08:02:59;7.10;;;3.50;;
59273;SDS011;45044;41.572;24.730;2023-08-31T08:05:27;8.18;;;3.60;;
59273;SDS011;45044;41.572;24.730;2023-08-31T08:07:53;6.30;;;3.50;;
59273;SDS011;45044;41.572;24.730;2023-08-31T08:10:20;7.53;;;3.90;;
59273;SDS011;45044;41.572;24.730;2023-08-31T08:12:47;13.68;;;7.30;;
59273;SDS011;45044;41.572;24.730;2023-08-31T08:15:21;10.88;;;6.32;;
59273;SDS011;45044;41.572;24.730;2023-08-31T08:17:48;6.00;;;3.22;;
59273;SDS011;45044;41.572;24.730;2023-08-31T08:20:14;10.73;;;6.47;;
59273;SDS011;45044;41.572;24.730;2023-08-31T08:22:41;6.03;;;3.80;;
59273;SDS011;45044;41.572;24.730;2023-08-31T08:25:08;5.82;;;3.10;;
59273;SDS011;45044;41.572;24.730;2023-08-31T08:27:35;5.43;;;2.95;;
59273;SDS011;45044;41.572;24.730;2023-08-31T08:30:03;7.75;;;3.58;;
59273;SDS011;45044;41.572;24.730;2023-08-31T08:32:32;5.93;;;2.65;;
59273;SDS011;45044;41.572;24.730;2023-08-31T08:35:00;7.25;;;3.38;;
59273;SDS011;45044;41.572;24.730;2023-08-31T08:37:27;5.35;;;3.30;;
59273;SDS011;45044;41.572;24.730;2023-08-31T08:39:55;6.55;;;3.60;;
59273;SDS011;45044;41.572;24.730;2023-08-31T08:42:23;5.80;;;3.20;;
59273;SDS011;45044;41.572;24.730;2023-08-31T08:44:51;8.18;;;3.33;;
59273;SDS011;45044;41.572;24.730;2023-08-31T08:47:18;7.55;;;3.40;;
59273;SDS011;45044;41.572;24.730;2023-08-31T08:49:46;8.48;;;3.50;;
59273;SDS011;45044;41.572;24.730;2023-08-31T08:52:14;5.53;;;2.97;;
59273;SDS011;45044;41.572;24.730;2023-08-31T08:54:42;6.45;;;3.47;;
59273;SDS011;45044;41.572;24.730;2023-08-31T08:57:09;8.35;;;3.60;;
59273;SDS011;45044;41.572;24.730;2023-08-31T08:59:35;7.15;;;3.15;;
59273;SDS011;45044;41.572;24.730;2023-08-31T09:02:02;6.25;;;3.60;;
59273;SDS011;45044;41.572;24.730;2023-08-31T09:04:31;6.03;;;3.00;;
59273;SDS011;45044;41.572;24.730;2023-08-31T09:06:58;6.55;;;3.50;;
59273;SDS011;45044;41.572;24.730;2023-08-31T09:09:25;5.78;;;2.88;;
59273;SDS011;45044;41.572;24.730;2023-08-31T09:11:52;6.20;;;3.20;;
59273;SDS011;45044;41.572;24.730;2023-08-31T09:14:21;6.63;;;2.90;;
59273;SDS011;45044;41.572;24.730;2023-08-31T09:16:50;5.47;;;2.53;;
59273;SDS011;45044;41.572;24.730;2023-08-31T09:19:22;5.47;;;3.25;;
59273;SDS011;45044;41.572;24.730;2023-08-31T09:21:55;5.90;;;2.78;;
59273;SDS011;45044;41.572;24.730;2023-08-31T09:24:23;4.68;;;2.50;;
59273;SDS011;45044;41.572;24.730;2023-08-31T09:26:55;4.72;;;2.50;;
59273;SDS011;45044;41.572;24.730;2023-08-31T09:29:23;5.15;;;2.50;;
59273;SDS011;45044;41.572;24.730;2023-08-31T09:31:50;6.20;;;3.30;;
59273;SDS011;45044;41.572;24.730;2023-08-31T09:34:17;7.28;;;3.00;;
59273;SDS011;45044;41.572;24.730;2023-08-31T09:36:45;5.22;;;2.50;;
59273;SDS011;45044;41.572;24.730;2023-08-31T09:39:13;6.05;;;2.83;;
59273;SDS011;45044;41.572;24.730;2023-08-31T09:41:53;4.85;;;2.20;;
59273;SDS011;45044;41.572;24.730;2023-08-31T09:44:21;5.60;;;2.55;;
59273;SDS011;45044;41.572;24.730;2023-08-31T09:46:48;5.88;;;2.55;;
59273;SDS011;45044;41.572;24.730;2023-08-31T09:49:18;5.97;;;2.65;;
59273;SDS011;45044;41.572;24.730;2023-08-31T09:51:48;5.13;;;2.30;;
59273;SDS011;45044;41.572;24.730;2023-08-31T09:54:17;8.10;;;3.05;;
59273;SDS011;45044;41.572;24.730;2023-08-31T09:56:46;6.68;;;2.60;;
59273;SDS011;45044;41.572;24.730;2023-08-31T09:59:14;6.13;;;2.40;;
59273;SDS011;45044;41.572;24.730;2023-08-31T10:01:42;5.65;;;2.70;;
59273;SDS011;45044;41.572;24.730;2023-08-31T10:04:11;6.22;;;2.45;;
59273;SDS011;45044;41.572;24.730;2023-08-31T10:06:39;4.75;;;2.15;;
59273;SDS011;45044;41.572;24.730;2023-08-31T10:09:06;5.93;;;2.45;;
59273;SDS011;45044;41.572;24.730;2023-08-31T10:11:36;6.25;;;2.75;;
59273;SDS011;45044;41.572;24.730;2023-08-31T10:14:05;5.15;;;2.70;;
59273;SDS011;45044;41.572;24.730;2023-08-31T10:16:32;4.63;;;2.25;;
59273;SDS011;45044;41.572;24.730;2023-08-31T10:18:59;4.95;;;2.53;;
59273;SDS011;45044;41.572;24.730;2023-08-31T10:21:26;6.03;;;2.15;;
59273;SDS011;45044;41.572;24.730;2023-08-31T10:23:53;4.85;;;2.40;;
59273;SDS011;45044;41.572;24.730;2023-08-31T10:26:29;6.63;;;2.33;;
59273;SDS011;45044;41.572;24.730;2023-08-31T10:28:58;4.53;;;2.25;;
59273;SDS011;45044;41.572;24.730;2023-08-31T10:31:29;6.45;;;2.88;;
59273;SDS011;45044;41.572;24.730;2023-08-31T10:36:36;5.65;;;2.55;;
59273;SDS011;45044;41.572;24.730;2023-08-31T10:39:05;5.57;;;2.40;;
59273;SDS011;45044;41.572;24.730;2023-08-31T10:41:39;4.90;;;2.63;;
59273;SDS011;45044;41.572;24.730;2023-08-31T10:44:22;5.32;;;2.78;;
59273;SDS011;45044;41.572;24.730;2023-08-31T10:46:50;5.25;;;2.67;;
59273;SDS011;45044;41.572;24.730;2023-08-31T10:49:19;4.68;;;2.10;;
59273;SDS011;45044;41.572;24.730;2023-08-31T10:51:48;8.32;;;3.00;;
59273;SDS011;45044;41.572;24.730;2023-08-31T10:54:27;5.88;;;2.92;;
59273;SDS011;45044;41.572;24.730;2023-08-31T10:59:27;6.25;;;2.53;;
59273;SDS011;45044;41.572;24.730;2023-08-31T11:02:35;4.70;;;2.15;;
59273;SDS011;45044;41.572;24.730;2023-08-31T11:05:17;5.03;;;2.60;;
59273;SDS011;45044;41.572;24.730;2023-08-31T11:07:48;3.80;;;2.28;;
59273;SDS011;45044;41.572;24.730;2023-08-31T11:10:22;3.92;;;1.90;;
59273;SDS011;45044;41.572;24.730;2023-08-31T11:12:52;6.85;;;2.65;;
59273;SDS011;45044;41.572;24.730;2023-08-31T11:15:27;5.78;;;2.50;;
59273;SDS011;45044;41.572;24.730;2023-08-31T11:17:56;5.32;;;2.85;;
59273;SDS011;45044;41.572;24.730;2023-08-31T11:20:24;7.82;;;2.97;;
59273;SDS011;45044;41.572;24.730;2023-08-31T11:22:55;6.22;;;2.42;;
59273;SDS011;45044;41.572;24.730;2023-08-31T11:25:22;5.85;;;2.60;;
59273;SDS011;45044;41.572;24.730;2023-08-31T11:27:54;4.20;;;2.25;;
59273;SDS011;45044;41.572;24.730;2023-08-31T11:30:28;4.30;;;2.20;;
59273;SDS011;45044;41.572;24.730;2023-08-31T11:33:02;4.05;;;2.03;;
59273;SDS011;45044;41.572;24.730;2023-08-31T11:35:34;8.50;;;2.58;;
59273;SDS011;45044;41.572;24.730;2023-08-31T11:38:04;5.95;;;2.55;;
59273;SDS011;45044;41.572;24.730;2023-08-31T11:40:31;5.35;;;2.60;;
59273;SDS011;45044;41.572;24.730;2023-08-31T11:42:58;5.00;;;2.50;;
59273;SDS011;45044;41.572;24.730;2023-08-31T11:45:30;6.10;;;2.55;;
59273;SDS011;45044;41.572;24.730;2023-08-31T11:47:57;5.63;;;2.20;;
59273;SDS011;45044;41.572;24.730;2023-08-31T11:50:25;4.32;;;2.45;;
59273;SDS011;45044;41.572;24.730;2023-08-31T11:52:52;3.80;;;2.20;;
59273;SDS011;45044;41.572;24.730;2023-08-31T11:55:20;7.75;;;3.38;;
59273;SDS011;45044;41.572;24.730;2023-08-31T11:57:50;5.22;;;2.58;;
59273;SDS011;45044;41.572;24.730;2023-08-31T12:00:18;4.15;;;2.17;;
59273;SDS011;45044;41.572;24.730;2023-08-31T12:02:55;5.72;;;2.78;;
59273;SDS011;45044;41.572;24.730;2023-08-31T12:05:26;5.38;;;2.25;;
59273;SDS011;45044;41.572;24.730;2023-08-31T12:07:55;5.05;;;2.55;;
59273;SDS011;45044;41.572;24.730;2023-08-31T12:10:25;5.75;;;2.80;;
59273;SDS011;45044;41.572;24.730;2023-08-31T12:12:53;4.85;;;2.47;;
59273;SDS011;45044;41.572;24.730;2023-08-31T12:15:33;5.78;;;2.85;;
59273;SDS011;45044;41.572;24.730;2023-08-31T12:18:06;6.43;;;2.70;;
59273;SDS011;45044;41.572;24.730;2023-08-31T12:20:43;4.80;;;2.35;;
59273;SDS011;45044;41.572;24.730;2023-08-31T12:23:13;5.00;;;2.67;;
59273;SDS011;45044;41.572;24.730;2023-08-31T12:25:50;5.75;;;3.05;;
59273;SDS011;45044;41.572;24.730;2023-08-31T12:28:18;6.00;;;2.78;;
59273;SDS011;45044;41.572;24.730;2023-08-31T12:30:49;8.10;;;3.20;;
59273;SDS011;45044;41.572;24.730;2023-08-31T12:33:17;5.25;;;2.50;;
59273;SDS011;45044;41.572;24.730;2023-08-31T12:35:46;6.15;;;2.50;;
59273;SDS011;45044;41.572;24.730;2023-08-31T12:38:13;5.20;;;2.63;;
59273;SDS011;45044;41.572;24.730;2023-08-31T12:40:40;7.57;;;3.08;;
59273;SDS011;45044;41.572;24.730;2023-08-31T12:43:07;5.30;;;3.28;;
59273;SDS011;45044;41.572;24.730;2023-08-31T12:45:36;5.25;;;3.10;;
59273;SDS011;45044;41.572;24.730;2023-08-31T12:48:03;5.38;;;2.95;;
59273;SDS011;45044;41.572;24.730;2023-08-31T12:50:31;5.00;;;2.80;;
59273;SDS011;45044;41.572;24.730;2023-08-31T12:52:58;6.65;;;2.70;;
59273;SDS011;45044;41.572;24.730;2023-08-31T12:55:25;5.43;;;3.30;;
59273;SDS011;45044;41.572;24.730;2023-08-31T12:57:53;6.20;;;3.10;;
59273;SDS011;45044;41.572;24.730;2023-08-31T13:00:20;5.43;;;2.90;;
59273;SDS011;45044;41.572;24.730;2023-08-31T13:02:46;5.95;;;2.58;;
59273;SDS011;45044;41.572;24.730;2023-08-31T13:05:14;7.75;;;3.20;;
59273;SDS011;45044;41.572;24.730;2023-08-31T13:07:40;6.90;;;2.60;;
59273;SDS011;45044;41.572;24.730;2023-08-31T13:10:07;5.82;;;2.78;;
59273;SDS011;45044;41.572;24.730;2023-08-31T13:12:34;6.03;;;3.20;;
59273;SDS011;45044;41.572;24.730;2023-08-31T13:15:01;6.85;;;2.63;;
59273;SDS011;45044;41.572;24.730;2023-08-31T13:17:29;4.85;;;2.67;;
59273;SDS011;45044;41.572;24.730;2023-08-31T13:19:56;6.00;;;2.85;;
59273;SDS011;45044;41.572;24.730;2023-08-31T13:22:24;6.10;;;2.75;;
59273;SDS011;45044;41.572;24.730;2023-08-31T13:24:51;6.95;;;2.78;;
59273;SDS011;45044;41.572;24.730;2023-08-31T13:27:19;5.70;;;2.42;;
59273;SDS011;45044;41.572;24.730;2023-08-31T13:29:46;5.30;;;2.38;;
59273;SDS011;45044;41.572;24.730;2023-08-31T13:32:12;6.35;;;2.67;;
59273;SDS011;45044;41.572;24.730;2023-08-31T13:34:40;5.90;;;2.70;;
59273;SDS011;45044;41.572;24.730;2023-08-31T13:37:09;5.25;;;2.40;;
59273;SDS011;45044;41.572;24.730;2023-08-31T13:39:37;6.65;;;3.45;;
59273;SDS011;45044;41.572;24.730;2023-08-31T13:42:04;6.18;;;2.75;;
59273;SDS011;45044;41.572;24.730;2023-08-31T13:44:33;7.07;;;2.78;;
59273;SDS011;45044;41.572;24.730;2023-08-31T13:47:00;9.00;;;2.97;;
59273;SDS011;45044;41.572;24.730;2023-08-31T13:49:29;6.28;;;2.50;;
59273;SDS011;45044;41.572;24.730;2023-08-31T13:51:56;6.97;;;2.65;;
59273;SDS011;45044;41.572;24.730;2023-08-31T13:54:24;5.95;;;2.40;;
59273;SDS011;45044;41.572;24.730;2023-08-31T13:56:51;5.93;;;2.97;;
59273;SDS011;45044;41.572;24.730;2023-08-31T13:59:18;5.32;;;2.67;;
59273;SDS011;45044;41.572;24.730;2023-08-31T14:01:45;6.38;;;2.80;;
59273;SDS011;45044;41.572;24.730;2023-08-31T14:04:12;7.97;;;2.53;;
59273;SDS011;45044;41.572;24.730;2023-08-31T14:06:39;4.88;;;2.42;;
59273;SDS011;45044;41.572;24.730;2023-08-31T14:09:06;6.30;;;2.45;;
59273;SDS011;45044;41.572;24.730;2023-08-31T14:11:34;6.15;;;3.05;;
59273;SDS011;45044;41.572;24.730;2023-08-31T14:14:03;5.10;;;3.15;;
59273;SDS011;45044;41.572;24.730;2023-08-31T14:16:32;4.63;;;2.30;;
59273;SDS011;45044;41.572;24.730;2023-08-31T14:19:00;4.68;;;2.30;;
59273;SDS011;45044;41.572;24.730;2023-08-31T14:21:27;6.03;;;2.20;;
59273;SDS011;45044;41.572;24.730;2023-08-31T14:23:56;5.55;;;2.50;;
59273;SDS011;45044;41.572;24.730;2023-08-31T14:26:25;6.72;;;2.42;;
59273;SDS011;45044;41.572;24.730;2023-08-31T14:28:52;5.85;;;2.80;;
59273;SDS011;45044;41.572;24.730;2023-08-31T14:31:19;6.55;;;2.70;;
59273;SDS011;45044;41.572;24.730;2023-08-31T14:33:46;8.30;;;2.63;;
59273;SDS011;45044;41.572;24.730;2023-08-31T14:36:14;7.57;;;2.85;;
59273;SDS011;45044;41.572;24.730;2023-08-31T14:38:42;6.60;;;3.92;;
59273;SDS011;45044;41.572;24.730;2023-08-31T14:41:09;4.78;;;2.28;;
59273;SDS011;45044;41.572;24.730;2023-08-31T14:43:36;4.75;;;2.10;;
59273;SDS011;45044;41.572;24.730;2023-08-31T14:46:03;4.60;;;2.22;;
59273;SDS011;45044;41.572;24.730;2023-08-31T14:48:30;6.78;;;2.83;;
59273;SDS011;45044;41.572;24.730;2023-08-31T14:50:58;4.90;;;2.15;;
59273;SDS011;45044;41.572;24.730;2023-08-31T14:53:26;7.35;;;2.58;;